Time;durP1;ratioP1;P1;durP2;ratioP2;P2;SDS_P1;SDS_P2;PMS_P1;PMS_P2;Temp;Humidity;BMP_temperature;BMP_pressure;BME280_temperature;BME280_humidity;BME280_pressure;Samples;Min_cycle;Max_cycle;Signal;HPM_P1;HPM_P2
2022/07/01 00:00:15;0.00;0.00;0.62;0.00;0.00;0.62;6.53;5.00;;;27.30;41.50;;;;;;2259376;61;20691;-63
2022/07/01 00:03:01;0.00;0.00;0.62;0.00;0.00;0.62;5.13;4.17;;;27.30;41.30;;;;;;2259724;61;20878;-63
2022/07/01 00:05:47;0.00;0.00;0.62;0.00;0.00;0.62;7.40;5.03;;;27.20;41.40;;;;;;2259261;61;20435;-63
2022/07/01 00:08:32;0.00;0.00;0.62;0.00;0.00;0.62;4.43;4.00;;;27.10;41.30;;;;;;2260141;61;21260;-63
2022/07/01 00:11:17;0.00;0.00;0.62;0.00;0.00;0.62;6.70;4.17;;;27.10;41.30;;;;;;2260184;61;20460;-64
2022/07/01 00:14:01;0.00;0.00;0.62;0.00;0.00;0.62;5.73;4.40;;;27.00;41.20;;;;;;2259847;61;20411;-64
2022/07/01 00:16:46;0.00;0.00;0.62;0.00;0.00;0.62;4.37;3.77;;;27.00;41.20;;;;;;2260486;61;20384;-62
2022/07/01 00:19:31;0.00;0.00;0.62;0.00;0.00;0.62;4.60;3.70;;;27.00;41.30;;;;;;2259768;61;20495;-63
2022/07/01 00:22:18;0.00;0.00;0.62;0.00;0.00;0.62;4.80;4.30;;;26.90;41.20;;;;;;2260011;61;20415;-62
2022/07/01 00:25:04;0.00;0.00;0.62;0.00;0.00;0.62;5.43;4.30;;;26.90;41.20;;;;;;2260064;61;20885;-61
2022/07/01 00:27:49;0.00;0.00;0.62;0.00;0.00;0.62;3.30;3.00;;;26.80;41.10;;;;;;2259835;61;20376;-62
2022/07/01 00:30:34;0.00;0.00;0.62;0.00;0.00;0.62;3.00;2.70;;;26.80;41.10;;;;;;2259569;61;20507;-60
2022/07/01 00:33:18;0.00;0.00;0.62;0.00;0.00;0.62;2.83;2.60;;;26.70;41.00;;;;;;2259552;61;20370;-62
2022/07/01 00:36:04;0.00;0.00;0.62;0.00;0.00;0.62;3.13;2.73;;;26.70;41.10;;;;;;2259818;61;20873;-63
2022/07/01 00:38:50;0.00;0.00;0.62;0.00;0.00;0.62;4.20;2.73;;;26.70;41.00;;;;;;2260377;61;20913;-62
2022/07/01 00:41:35;0.00;0.00;0.62;0.00;0.00;0.62;2.80;2.50;;;26.70;40.90;;;;;;2259441;61;20445;-62
2022/07/01 00:44:20;0.00;0.00;0.62;0.00;0.00;0.62;5.80;3.00;;;26.60;40.60;;;;;;2259830;61;20364;-62
2022/07/01 00:47:12;0.00;0.00;0.62;0.00;0.00;0.62;3.07;2.50;;;26.60;41.00;;;;;;2260170;61;20389;-61
2022/07/01 00:49:57;0.00;0.00;0.62;0.00;0.00;0.62;3.87;2.90;;;26.50;40.80;;;;;;2259738;61;20384;-58
2022/07/01 00:52:43;0.00;0.00;0.62;0.00;0.00;0.62;2.90;2.60;;;26.50;40.90;;;;;;2259726;61;20447;-60
2022/07/01 00:55:30;0.00;0.00;0.62;0.00;0.00;0.62;2.80;2.50;;;26.40;40.90;;;;;;2259484;61;20353;-59
2022/07/01 00:58:15;0.00;0.00;0.62;0.00;0.00;0.62;4.03;2.87;;;26.30;40.80;;;;;;2259502;61;20373;-61
2022/07/01 01:01:00;0.00;0.00;0.62;0.00;0.00;0.62;3.80;3.50;;;26.30;40.80;;;;;;2260284;61;20674;-60
2022/07/01 01:03:45;0.00;0.00;0.62;0.00;0.00;0.62;5.40;4.90;;;26.30;41.20;;;;;;2259377;61;20407;-58
2022/07/01 01:06:29;0.00;0.00;0.62;0.00;0.00;0.62;4.30;3.20;;;26.20;41.30;;;;;;2259711;61;20431;-65
2022/07/01 01:09:14;0.00;0.00;0.62;0.00;0.00;0.62;3.43;3.13;;;26.20;41.50;;;;;;2259842;61;20511;-65
2022/07/01 01:12:01;0.00;0.00;0.62;0.00;0.00;0.62;4.00;3.00;;;26.10;41.40;;;;;;2259561;61;20365;-61
2022/07/01 01:14:48;0.00;0.00;0.62;0.00;0.00;0.62;6.73;3.30;;;26.10;41.30;;;;;;2260082;61;20385;-58
2022/07/01 01:17:33;0.00;0.00;0.62;0.00;0.00;0.62;2.90;2.60;;;26.10;41.30;;;;;;2258528;61;20450;-62
2022/07/01 01:20:20;0.00;0.00;0.62;0.00;0.00;0.62;4.43;3.50;;;26.20;41.40;;;;;;2257733;61;20808;-61
2022/07/01 01:23:07;0.00;0.00;0.62;0.00;0.00;0.62;3.33;3.03;;;26.20;41.30;;;;;;2259224;61;20415;-58
2022/07/01 01:25:52;0.00;0.00;0.62;0.00;0.00;0.62;4.20;3.00;;;26.20;41.10;;;;;;2258922;61;20428;-59
2022/07/01 01:28:37;0.00;0.00;0.62;0.00;0.00;0.62;3.77;3.13;;;26.30;40.80;;;;;;2260180;61;20790;-57
2022/07/01 01:31:29;0.00;0.00;0.62;0.00;0.00;0.62;3.50;3.13;;;26.30;40.80;;;;;;2260330;61;20365;-61
2022/07/01 01:34:14;0.00;0.00;0.62;0.00;0.00;0.62;4.40;3.10;;;26.30;40.80;;;;;;2260118;61;20364;-60
2022/07/01 01:37:00;0.00;0.00;0.62;0.00;0.00;0.62;3.03;2.37;;;26.30;40.80;;;;;;2260307;61;20360;-60
2022/07/01 01:39:46;0.00;0.00;0.62;0.00;0.00;0.62;4.70;2.47;;;26.40;40.50;;;;;;2260381;61;20875;-60
2022/07/01 01:42:31;0.00;0.00;0.62;0.00;0.00;0.62;3.60;2.10;;;26.40;40.30;;;;;;2259800;61;20499;-59
2022/07/01 01:45:16;0.00;0.00;0.62;0.00;0.00;0.62;3.77;2.23;;;26.40;40.20;;;;;;2260366;61;20381;-59
2022/07/01 01:48:01;0.00;0.00;0.62;0.00;0.00;0.62;2.47;2.10;;;26.40;40.10;;;;;;2260208;61;20349;-61
2022/07/01 01:50:46;0.00;0.00;0.62;0.00;0.00;0.62;2.63;2.17;;;26.40;40.00;;;;;;2260761;61;20361;-60
2022/07/01 01:53:32;0.00;0.00;0.62;0.00;0.00;0.62;2.70;2.27;;;26.40;39.90;;;;;;2260828;61;20361;-60
2022/07/01 01:56:18;0.00;0.00;0.62;0.00;0.00;0.62;4.10;2.57;;;26.40;39.80;;;;;;2260660;61;20492;-61
2022/07/01 01:59:04;0.00;0.00;0.62;0.00;0.00;0.62;2.30;2.10;;;26.40;39.70;;;;;;2260176;61;20396;-60
2022/07/01 02:01:49;0.00;0.00;0.62;0.00;0.00;0.62;2.70;2.30;;;26.50;39.70;;;;;;2260572;61;20399;-60
2022/07/01 02:04:34;0.00;0.00;0.62;0.00;0.00;0.62;2.87;2.07;;;26.50;39.50;;;;;;2260243;61;20443;-62
2022/07/01 02:07:19;0.00;0.00;0.62;0.00;0.00;0.62;3.07;2.33;;;26.50;39.40;;;;;;2260399;61;20449;-61
2022/07/01 02:10:05;0.00;0.00;0.62;0.00;0.00;0.62;4.00;2.47;;;26.50;39.30;;;;;;2259375;61;20389;-59
2022/07/01 02:12:52;0.00;0.00;0.62;0.00;0.00;0.62;3.07;2.37;;;26.50;39.10;;;;;;2259895;61;20369;-60
2022/07/01 02:15:37;0.00;0.00;0.62;0.00;0.00;0.62;2.70;1.87;;;26.50;39.10;;;;;;2260169;61;20392;-60
2022/07/01 02:18:22;0.00;0.00;0.62;0.00;0.00;0.62;2.30;2.00;;;26.50;39.00;;;;;;2259124;61;20369;-59
2022/07/01 02:21:07;0.00;0.00;0.62;0.00;0.00;0.62;3.07;1.47;;;26.50;38.90;;;;;;2259339;61;20770;-61
2022/07/01 02:23:53;0.00;0.00;0.62;0.00;0.00;0.62;2.50;1.60;;;26.50;38.80;;;;;;2259973;61;20419;-58
2022/07/01 02:26:38;0.00;0.00;0.62;0.00;0.00;0.62;1.97;1.30;;;26.50;38.70;;;;;;2259687;61;20435;-58
2022/07/01 02:29:24;0.00;0.00;0.62;0.00;0.00;0.62;2.20;1.50;;;26.40;38.60;;;;;;2259762;61;20464;-59
2022/07/01 02:32:10;0.00;0.00;0.62;0.00;0.00;0.62;1.90;1.30;;;26.40;38.50;;;;;;2259062;61;20373;-59
2022/07/01 02:34:55;0.00;0.00;0.62;0.00;0.00;0.62;4.50;1.67;;;26.40;38.50;;;;;;2259395;61;20438;-60
2022/07/01 02:37:39;0.00;0.00;0.62;0.00;0.00;0.62;1.63;1.10;;;26.40;38.40;;;;;;2260033;61;20353;-60
2022/07/01 02:40:24;0.00;0.00;0.62;0.00;0.00;0.62;1.67;1.03;;;26.40;38.40;;;;;;2259368;61;20868;-60
2022/07/01 02:43:10;0.00;0.00;0.62;0.00;0.00;0.62;1.80;0.90;;;26.40;38.40;;;;;;2259335;61;20368;-57
2022/07/01 02:45:56;0.00;0.00;0.62;0.00;0.00;0.62;2.53;1.20;;;26.40;38.30;;;;;;2259871;61;20396;-59
2022/07/01 02:48:41;0.00;0.00;0.62;0.00;0.00;0.62;3.33;1.47;;;26.40;38.20;;;;;;2259230;61;20447;-59
2022/07/01 02:51:27;0.00;0.00;0.62;0.00;0.00;0.62;5.23;2.13;;;26.30;38.10;;;;;;2259847;61;20404;-59
2022/07/01 02:54:12;0.00;0.00;0.62;0.00;0.00;0.62;2.30;2.03;;;26.30;38.00;;;;;;2259010;61;20365;-60
2022/07/01 02:56:57;0.00;0.00;0.62;0.00;0.00;0.62;2.30;1.83;;;26.30;38.00;;;;;;2259468;61;20537;-60
2022/07/01 02:59:42;0.00;0.00;0.62;0.00;0.00;0.62;5.57;2.10;;;26.30;37.80;;;;;;2683960;45;20933;-58
2022/07/01 03:02:28;0.00;0.00;0.62;0.00;0.00;0.62;2.07;1.70;;;26.30;37.80;;;;;;2255180;61;20416;-58
2022/07/01 03:05:13;0.00;0.00;0.62;0.00;0.00;0.62;2.83;2.37;;;26.20;37.70;;;;;;2255245;61;20473;-58
2022/07/01 03:07:57;0.00;0.00;0.62;0.00;0.00;0.62;2.60;2.20;;;26.20;37.70;;;;;;2256066;61;20887;-59
2022/07/01 03:10:42;0.00;0.00;0.62;0.00;0.00;0.62;2.23;1.90;;;26.20;37.70;;;;;;2255175;61;20362;-59
2022/07/01 03:13:27;0.00;0.00;0.62;0.00;0.00;0.62;5.00;1.90;;;26.20;37.60;;;;;;2255450;61;20401;-59
2022/07/01 03:16:11;0.00;0.00;0.62;0.00;0.00;0.62;2.60;2.00;;;26.20;37.60;;;;;;2255509;61;20361;-58
2022/07/01 03:18:58;0.00;0.00;0.62;0.00;0.00;0.62;3.00;2.30;;;26.20;37.60;;;;;;2254971;61;20957;-59
2022/07/01 03:21:43;0.00;0.00;0.62;0.00;0.00;0.62;2.80;2.50;;;26.20;37.60;;;;;;2255737;61;20366;-58
2022/07/01 03:24:28;0.00;0.00;0.62;0.00;0.00;0.62;2.27;1.83;;;26.20;37.60;;;;;;2255090;61;20377;-58
2022/07/01 03:27:13;0.00;0.00;0.62;0.00;0.00;0.62;2.80;1.90;;;26.20;37.60;;;;;;2255279;61;20926;-57
2022/07/01 03:29:58;0.00;0.00;0.62;0.00;0.00;0.62;2.53;1.80;;;26.10;37.50;;;;;;2255945;61;20421;-59
2022/07/01 03:32:43;0.00;0.00;0.62;0.00;0.00;0.62;2.60;1.77;;;26.10;37.60;;;;;;2254934;61;20346;-58
2022/07/01 03:35:35;0.00;0.00;0.62;0.00;0.00;0.62;2.30;1.80;;;26.10;37.60;;;;;;2255350;61;20412;-58
2022/07/01 03:38:20;0.00;0.00;0.62;0.00;0.00;0.62;5.93;2.10;;;26.10;37.60;;;;;;2255449;61;20378;-60
2022/07/01 03:41:05;0.00;0.00;0.62;0.00;0.00;0.62;2.73;2.20;;;26.00;37.50;;;;;;2255249;61;20451;-59
2022/07/01 03:43:50;0.00;0.00;0.62;0.00;0.00;0.62;1.77;1.60;;;26.00;37.50;;;;;;2255560;61;20778;-58
2022/07/01 03:46:35;0.00;0.00;0.62;0.00;0.00;0.62;2.53;1.50;;;26.00;37.40;;;;;;2254581;61;20789;-59
2022/07/01 03:49:20;0.00;0.00;0.62;0.00;0.00;0.62;1.90;1.60;;;26.00;37.40;;;;;;2255142;61;20386;-58
2022/07/01 03:52:07;0.00;0.00;0.62;0.00;0.00;0.62;2.30;1.83;;;26.00;37.30;;;;;;2255293;61;20406;-58
2022/07/01 03:54:52;0.00;0.00;0.62;0.00;0.00;0.62;1.83;1.30;;;25.90;37.30;;;;;;2254799;61;20462;-57
2022/07/01 03:57:36;0.00;0.00;0.62;0.00;0.00;0.62;2.33;1.40;;;25.90;37.30;;;;;;2255481;61;20405;-57
2022/07/01 04:00:23;0.00;0.00;0.62;0.00;0.00;0.62;5.63;2.03;;;25.80;37.20;;;;;;2255710;61;20493;-60
2022/07/01 04:03:08;0.00;0.00;0.62;0.00;0.00;0.62;2.53;1.57;;;25.80;37.20;;;;;;2254758;61;20366;-60
2022/07/01 04:05:53;0.00;0.00;0.62;0.00;0.00;0.62;3.77;1.50;;;25.80;37.20;;;;;;2255737;61;20455;-59
2022/07/01 04:08:39;0.00;0.00;0.62;0.00;0.00;0.62;2.00;1.33;;;25.70;37.10;;;;;;2255092;61;20459;-59
2022/07/01 04:11:24;0.00;0.00;0.62;0.00;0.00;0.62;2.20;1.20;;;25.70;37.10;;;;;;2255247;61;20370;-59
2022/07/01 04:14:09;0.00;0.00;0.62;0.00;0.00;0.62;1.80;1.60;;;25.70;37.20;;;;;;2255554;61;20378;-58
2022/07/01 04:16:55;0.00;0.00;0.62;0.00;0.00;0.62;2.20;1.47;;;25.70;37.30;;;;;;2254790;61;20381;-59
2022/07/01 04:19:39;0.00;0.00;0.62;0.00;0.00;0.62;2.07;1.40;;;25.70;37.30;;;;;;2255477;61;20456;-59
2022/07/01 04:22:33;0.00;0.00;0.62;0.00;0.00;0.62;1.77;1.20;;;25.60;37.30;;;;;;2255510;61;20377;-59
2022/07/01 04:25:20;0.00;0.00;0.62;0.00;0.00;0.62;3.93;1.60;;;25.60;37.30;;;;;;2254857;61;20389;-59
2022/07/01 04:28:04;0.00;0.00;0.62;0.00;0.00;0.62;2.10;1.50;;;25.60;37.30;;;;;;2255738;61;20404;-59
2022/07/01 04:30:49;0.00;0.00;0.62;0.00;0.00;0.62;1.80;1.30;;;25.60;37.30;;;;;;2254940;61;20365;-59
2022/07/01 04:33:34;0.00;0.00;0.62;0.00;0.00;0.62;2.17;1.40;;;25.50;37.30;;;;;;2255086;61;20370;-60
2022/07/01 04:36:19;0.00;0.00;0.62;0.00;0.00;0.62;2.30;1.70;;;25.50;37.40;;;;;;2255452;61;20381;-60
2022/07/01 04:39:05;0.00;0.00;0.62;0.00;0.00;0.62;1.73;1.43;;;25.40;37.40;;;;;;2255226;61;20389;-58
2022/07/01 04:42:00;0.00;0.00;0.62;0.00;0.00;0.62;1.73;1.33;;;25.40;37.50;;;;;;2256016;61;20373;-58
2022/07/01 04:44:45;0.00;0.00;0.62;0.00;0.00;0.62;1.70;1.07;;;25.40;37.70;;;;;;2255826;61;20395;-61
2022/07/01 04:47:32;0.00;0.00;0.62;0.00;0.00;0.62;2.90;1.30;;;25.30;37.70;;;;;;2255323;61;20393;-61
2022/07/01 04:50:17;0.00;0.00;0.62;0.00;0.00;0.62;4.57;1.50;;;25.30;37.90;;;;;;2255792;61;20925;-61
2022/07/01 04:53:02;0.00;0.00;0.62;0.00;0.00;0.62;3.07;1.53;;;25.20;38.00;;;;;;2255271;61;20446;-62
2022/07/01 04:55:46;0.00;0.00;0.62;0.00;0.00;0.62;3.73;1.67;;;25.20;38.20;;;;;;2259673;61;20365;-59
2022/07/01 04:58:32;0.00;0.00;0.62;0.00;0.00;0.62;2.33;1.40;;;25.10;38.10;;;;;;2260505;61;20916;-57
2022/07/01 05:01:17;0.00;0.00;0.62;0.00;0.00;0.62;2.30;1.50;;;25.10;38.20;;;;;;2261939;61;20364;-63
2022/07/01 05:04:02;0.00;0.00;0.62;0.00;0.00;0.62;2.03;1.60;;;25.10;38.30;;;;;;2260539;61;20364;-65
2022/07/01 05:06:47;0.00;0.00;0.62;0.00;0.00;0.62;1.70;1.13;;;25.10;38.40;;;;;;2260445;61;20381;-64
2022/07/01 05:09:32;0.00;0.00;0.62;0.00;0.00;0.62;3.67;1.30;;;25.00;38.40;;;;;;2260327;61;20392;-65
2022/07/01 05:12:17;0.00;0.00;0.62;0.00;0.00;0.62;2.00;1.40;;;25.00;38.50;;;;;;2260358;61;20404;-65
2022/07/01 05:15:06;0.00;0.00;0.62;0.00;0.00;0.62;2.73;1.27;;;25.10;38.50;;;;;;2260217;61;20341;-65
2022/07/01 05:23:59;0.00;0.00;0.62;0.00;0.00;0.62;3.93;2.03;;;25.00;38.40;;;;;;2259694;61;20431;-60
2022/07/01 05:26:44;0.00;0.00;0.62;0.00;0.00;0.62;3.43;1.50;;;25.00;38.40;;;;;;2260436;61;20428;-61
2022/07/01 05:29:29;0.00;0.00;0.62;0.00;0.00;0.62;2.50;1.70;;;25.00;38.60;;;;;;2260613;61;20473;-62
2022/07/01 05:32:15;0.00;0.00;0.62;0.00;0.00;0.62;1.87;1.67;;;25.00;38.60;;;;;;2260949;61;20384;-62
2022/07/01 05:35:00;0.00;0.00;0.62;0.00;0.00;0.62;2.20;1.60;;;25.00;38.50;;;;;;2261464;61;20365;-63
2022/07/01 05:37:45;0.00;0.00;0.62;0.00;0.00;0.62;3.50;1.77;;;25.00;38.50;;;;;;2262123;61;20356;-63
2022/07/01 05:40:30;0.00;0.00;0.62;0.00;0.00;0.62;2.27;1.70;;;24.90;38.30;;;;;;2261066;61;20385;-62
2022/07/01 05:43:15;0.00;0.00;0.62;0.00;0.00;0.62;2.30;1.70;;;24.90;38.30;;;;;;2261593;61;20354;-63
2022/07/01 05:46:01;0.00;0.00;0.62;0.00;0.00;0.62;2.30;2.00;;;24.90;38.30;;;;;;2259995;61;20475;-62
2022/07/01 05:48:47;0.00;0.00;0.62;0.00;0.00;0.62;2.77;2.50;;;24.90;38.30;;;;;;2259956;61;20436;-65
2022/07/01 05:51:32;0.00;0.00;0.62;0.00;0.00;0.62;3.13;2.20;;;24.90;38.30;;;;;;2259752;61;20361;-63
2022/07/01 05:54:16;0.00;0.00;0.62;0.00;0.00;0.62;4.47;2.03;;;24.90;38.30;;;;;;2259356;61;20361;-65
2022/07/01 05:57:01;0.00;0.00;0.62;0.00;0.00;0.62;2.23;2.00;;;24.90;38.20;;;;;;2260265;61;20400;-64
2022/07/01 05:59:46;0.00;0.00;0.62;0.00;0.00;0.62;2.30;1.90;;;24.90;38.30;;;;;;2259838;61;20798;-59
2022/07/01 06:02:30;0.00;0.00;0.62;0.00;0.00;0.62;2.03;1.83;;;24.80;38.20;;;;;;2259652;61;20416;-63
2022/07/01 06:05:17;0.00;0.00;0.62;0.00;0.00;0.62;3.60;2.40;;;24.80;38.20;;;;;;2260040;61;20361;-63
2022/07/01 06:08:02;0.00;0.00;0.62;0.00;0.00;0.62;3.43;2.50;;;24.80;38.20;;;;;;2260010;61;20475;-63
2022/07/01 06:10:47;0.00;0.00;0.62;0.00;0.00;0.62;2.87;2.37;;;24.80;38.20;;;;;;2259840;61;20369;-64
2022/07/01 06:13:32;0.00;0.00;0.62;0.00;0.00;0.62;4.20;2.60;;;24.80;38.20;;;;;;2260750;61;20400;-63
2022/07/01 06:16:17;0.00;0.00;0.62;0.00;0.00;0.62;3.07;2.43;;;24.80;38.20;;;;;;2259924;61;20357;-63
2022/07/01 06:19:04;0.00;0.00;0.62;0.00;0.00;0.62;5.93;2.77;;;24.80;38.20;;;;;;2260714;61;20482;-63
2022/07/01 06:21:50;0.00;0.00;0.62;0.00;0.00;0.62;2.87;2.10;;;24.80;38.20;;;;;;2259791;61;20496;-65
2022/07/01 06:24:35;0.00;0.00;0.62;0.00;0.00;0.62;3.17;2.80;;;24.80;38.20;;;;;;2259858;61;20905;-64
2022/07/01 06:27:20;0.00;0.00;0.62;0.00;0.00;0.62;2.63;2.30;;;24.70;38.20;;;;;;2260320;61;20396;-64
2022/07/01 06:30:06;0.00;0.00;0.62;0.00;0.00;0.62;3.20;2.40;;;24.70;38.20;;;;;;2259667;61;20380;-63
2022/07/01 06:32:52;0.00;0.00;0.62;0.00;0.00;0.62;2.80;2.00;;;24.70;38.20;;;;;;2259952;61;20360;-64
2022/07/01 06:35:36;0.00;0.00;0.62;0.00;0.00;0.62;2.97;2.67;;;24.70;38.20;;;;;;2259855;61;20421;-63
2022/07/01 06:38:23;0.00;0.00;0.62;0.00;0.00;0.62;4.30;2.47;;;24.70;38.20;;;;;;2259287;61;20361;-65
2022/07/01 06:44:11;0.00;0.00;0.62;0.00;0.00;0.62;4.37;2.43;;;24.70;38.30;;;;;;2260379;61;20360;-64
2022/07/01 06:46:56;0.00;0.00;0.62;0.00;0.00;0.62;2.40;2.20;;;24.70;38.30;;;;;;2261514;61;20400;-62
2022/07/01 06:49:41;0.00;0.00;0.62;0.00;0.00;0.62;2.50;2.30;;;24.70;38.30;;;;;;2264766;61;20435;-64
2022/07/01 06:52:27;0.00;0.00;0.62;0.00;0.00;0.62;3.40;3.00;;;24.60;38.30;;;;;;2264154;61;20384;-64
2022/07/01 06:55:13;0.00;0.00;0.62;0.00;0.00;0.62;3.07;2.67;;;24.60;38.20;;;;;;2263477;61;20365;-63
2022/07/01 06:57:58;0.00;0.00;0.62;0.00;0.00;0.62;3.37;2.40;;;24.70;38.30;;;;;;2264459;61;20368;-64
2022/07/01 07:00:43;0.00;0.00;0.62;0.00;0.00;0.62;3.93;2.67;;;24.70;38.20;;;;;;2264062;61;20389;-64
2022/07/01 07:03:28;0.00;0.00;0.62;0.00;0.00;0.62;3.20;2.47;;;24.70;38.20;;;;;;2264142;61;20815;-64
2022/07/01 07:06:12;0.00;0.00;0.62;0.00;0.00;0.62;3.60;2.60;;;24.70;38.20;;;;;;2264968;61;20388;-64
2022/07/01 07:08:58;0.00;0.00;0.62;0.00;0.00;0.62;3.73;2.60;;;24.70;38.20;;;;;;2263233;61;20383;-62
2022/07/01 07:11:44;0.00;0.00;0.62;0.00;0.00;0.62;4.00;3.37;;;24.70;38.10;;;;;;2259649;61;20839;-61
2022/07/01 07:14:28;0.00;0.00;0.62;0.00;0.00;0.62;4.70;3.03;;;24.70;38.00;;;;;;2259172;61;20761;-62
2022/07/01 07:17:13;0.00;0.00;0.62;0.00;0.00;0.62;4.20;2.97;;;24.70;37.90;;;;;;2259330;61;20437;-61
2022/07/01 07:19:58;0.00;0.00;0.62;0.00;0.00;0.62;4.30;3.00;;;24.70;37.90;;;;;;2259509;61;20377;-61
2022/07/01 07:22:42;0.00;0.00;0.62;0.00;0.00;0.62;3.77;3.23;;;24.70;37.90;;;;;;2259388;61;20368;-61
2022/07/01 07:25:27;0.00;0.00;0.62;0.00;0.00;0.62;3.40;3.10;;;24.70;38.00;;;;;;2259440;61;20412;-61
2022/07/01 07:28:14;0.00;0.00;0.62;0.00;0.00;0.62;3.40;2.53;;;24.70;38.00;;;;;;2259347;61;20368;-62
2022/07/01 07:30:59;0.00;0.00;0.62;0.00;0.00;0.62;3.60;2.87;;;24.70;38.10;;;;;;2258809;61;20369;-61
2022/07/01 07:33:44;0.00;0.00;0.62;0.00;0.00;0.62;4.03;3.30;;;24.70;38.10;;;;;;2259448;61;20369;-61
2022/07/01 07:36:29;0.00;0.00;0.62;0.00;0.00;0.62;3.80;3.27;;;24.70;38.10;;;;;;2259316;61;20357;-62
2022/07/01 07:39:13;0.00;0.00;0.62;0.00;0.00;0.62;3.37;3.07;;;24.70;38.10;;;;;;2259119;61;20427;-61
2022/07/01 07:41:59;0.00;0.00;0.62;0.00;0.00;0.62;3.73;3.33;;;24.70;38.10;;;;;;2259537;61;20360;-62
2022/07/01 07:44:46;0.00;0.00;0.62;0.00;0.00;0.62;4.00;3.23;;;24.70;38.20;;;;;;2258963;61;20449;-60
2022/07/01 07:47:30;0.00;0.00;0.62;0.00;0.00;0.62;4.03;3.63;;;24.70;38.10;;;;;;2259582;61;20936;-62
2022/07/01 07:50:16;0.00;0.00;0.62;0.00;0.00;0.62;4.33;3.57;;;24.70;38.20;;;;;;2259579;61;20380;-61
2022/07/01 07:53:01;0.00;0.00;0.62;0.00;0.00;0.62;4.23;3.80;;;24.70;38.20;;;;;;2258915;61;20364;-62
2022/07/01 07:55:47;0.00;0.00;0.62;0.00;0.00;0.62;3.37;3.07;;;24.70;38.10;;;;;;2259642;61;20385;-62
2022/07/01 07:58:32;0.00;0.00;0.62;0.00;0.00;0.62;3.50;2.73;;;24.70;38.00;;;;;;2259188;61;20432;-59
2022/07/01 08:01:18;0.00;0.00;0.62;0.00;0.00;0.62;3.67;3.20;;;24.70;38.00;;;;;;2259064;61;20413;-62
2022/07/01 08:04:04;0.00;0.00;0.62;0.00;0.00;0.62;4.03;3.30;;;24.60;37.90;;;;;;2259402;61;20404;-61
2022/07/01 08:06:48;0.00;0.00;0.62;0.00;0.00;0.62;4.63;3.27;;;24.60;37.90;;;;;;2259107;61;20384;-61
2022/07/01 08:09:34;0.00;0.00;0.62;0.00;0.00;0.62;3.60;3.27;;;24.60;37.90;;;;;;2258970;61;20532;-62
2022/07/01 08:12:19;0.00;0.00;0.62;0.00;0.00;0.62;3.03;2.73;;;24.60;37.90;;;;;;2259461;61;20403;-61
2022/07/01 08:15:06;0.00;0.00;0.62;0.00;0.00;0.62;3.87;3.03;;;24.60;38.60;;;;;;2258989;61;20889;-61
2022/07/01 08:17:53;0.00;0.00;0.62;0.00;0.00;0.62;4.23;3.90;;;24.60;37.90;;;;;;2259557;61;20392;-61
2022/07/01 08:20:37;0.00;0.00;0.62;0.00;0.00;0.62;4.90;3.70;;;24.60;38.00;;;;;;2259064;61;20422;-61
2022/07/01 08:23:22;0.00;0.00;0.62;0.00;0.00;0.62;4.20;3.80;;;24.50;38.00;;;;;;2258955;61;20415;-60
2022/07/01 08:26:11;0.00;0.00;0.62;0.00;0.00;0.62;7.70;4.03;;;24.50;37.90;;;;;;2258904;61;20389;-64
2022/07/01 08:28:56;0.00;0.00;0.62;0.00;0.00;0.62;7.00;3.27;;;24.50;37.90;;;;;;2259671;61;20384;-62
2022/07/01 08:31:41;0.00;0.00;0.62;0.00;0.00;0.62;3.97;3.63;;;24.50;37.80;;;;;;2301162;58;20799;-63
2022/07/01 08:34:28;0.00;0.00;0.62;0.00;0.00;0.62;4.30;3.90;;;24.50;37.90;;;;;;2260219;61;20768;-64
2022/07/01 08:37:13;0.00;0.00;0.62;0.00;0.00;0.62;4.43;3.60;;;24.50;37.90;;;;;;2259658;61;20404;-61
2022/07/01 08:39:59;0.00;0.00;0.62;0.00;0.00;0.62;4.73;3.93;;;24.50;37.90;;;;;;2260235;61;20385;-62
2022/07/01 08:42:44;0.00;0.00;0.62;0.00;0.00;0.62;4.80;4.30;;;24.50;37.90;;;;;;2259608;61;20381;-62
2022/07/01 08:45:30;0.00;0.00;0.62;0.00;0.00;0.62;4.73;4.33;;;24.50;37.90;;;;;;2259335;61;20384;-62
2022/07/01 08:48:15;0.00;0.00;0.62;0.00;0.00;0.62;4.67;4.20;;;24.40;37.90;;;;;;2260133;61;20912;-60
2022/07/01 08:51:03;0.00;0.00;0.62;0.00;0.00;0.62;4.30;3.90;;;24.40;37.90;;;;;;2260050;61;20368;-62
2022/07/01 08:53:48;0.00;0.00;0.62;0.00;0.00;0.62;5.03;4.53;;;24.40;37.90;;;;;;2259855;61;20798;-64
2022/07/01 08:56:43;0.00;0.00;0.62;0.00;0.00;0.62;5.83;4.30;;;24.40;37.90;;;;;;2260842;61;20415;-64
2022/07/01 08:59:28;0.00;0.00;0.62;0.00;0.00;0.62;4.90;4.50;;;24.40;37.90;;;;;;2259727;61;20392;-63
2022/07/01 09:02:13;0.00;0.00;0.62;0.00;0.00;0.62;4.80;4.40;;;24.40;37.90;;;;;;2260772;61;20889;-60
2022/07/01 09:05:08;0.00;0.00;0.62;0.00;0.00;0.62;5.07;3.87;;;24.40;37.90;;;;;;2260559;61;20905;-61
2022/07/01 09:08:00;0.00;0.00;0.62;0.00;0.00;0.62;4.63;4.23;;;24.40;37.90;;;;;;2259761;61;20453;-59
2022/07/01 09:10:46;0.00;0.00;0.62;0.00;0.00;0.62;6.40;4.97;;;24.30;37.90;;;;;;2260121;61;20365;-63
2022/07/01 09:13:30;0.00;0.00;0.62;0.00;0.00;0.62;4.30;3.90;;;24.30;37.80;;;;;;2259712;61;20838;-63
2022/07/01 09:16:17;0.00;0.00;0.62;0.00;0.00;0.62;7.17;4.33;;;24.30;37.90;;;;;;2259858;61;20365;-60
2022/07/01 09:19:03;0.00;0.00;0.62;0.00;0.00;0.62;5.03;4.20;;;24.30;37.90;;;;;;2260148;61;20392;-62
2022/07/01 09:21:49;0.00;0.00;0.62;0.00;0.00;0.62;4.67;4.27;;;24.30;37.90;;;;;;2259507;61;20376;-62
2022/07/01 09:24:39;0.00;0.00;0.62;0.00;0.00;0.62;4.33;3.50;;;24.30;37.90;;;;;;2259804;61;20426;-63
2022/07/01 09:27:26;0.00;0.00;0.62;0.00;0.00;0.62;4.23;3.83;;;24.30;37.90;;;;;;2259471;61;20392;-61
2022/07/01 09:30:12;0.00;0.00;0.62;0.00;0.00;0.62;5.33;4.00;;;24.30;37.80;;;;;;2259692;61;20468;-62
2022/07/01 09:33:10;0.00;0.00;0.62;0.00;0.00;0.62;4.50;4.10;;;24.30;37.80;;;;;;2259944;61;20365;-62
2022/07/01 09:35:57;0.00;0.00;0.62;0.00;0.00;0.62;5.40;4.90;;;24.30;37.80;;;;;;2259778;61;20427;-61
2022/07/01 09:38:47;0.00;0.00;0.62;0.00;0.00;0.62;4.90;4.13;;;24.30;37.90;;;;;;2260210;61;20385;-63
2022/07/01 09:41:37;0.00;0.00;0.62;0.00;0.00;0.62;5.40;4.70;;;24.30;37.80;;;;;;2259951;61;20369;-62
2022/07/01 09:44:22;0.00;0.00;0.62;0.00;0.00;0.62;4.80;4.40;;;24.30;37.90;;;;;;2259370;61;20376;-61
2022/07/01 09:47:07;0.00;0.00;0.62;0.00;0.00;0.62;5.60;4.60;;;24.30;37.80;;;;;;2259921;61;20392;-63
2022/07/01 09:49:53;0.00;0.00;0.62;0.00;0.00;0.62;8.00;5.30;;;24.30;37.80;;;;;;2259592;61;20925;-63
2022/07/01 09:52:38;0.00;0.00;0.62;0.00;0.00;0.62;6.57;5.03;;;24.30;37.80;;;;;;2259879;61;21151;-61
2022/07/01 09:55:24;0.00;0.00;0.62;0.00;0.00;0.62;5.53;4.90;;;24.30;37.80;;;;;;2259777;61;20401;-60
2022/07/01 09:58:10;0.00;0.00;0.62;0.00;0.00;0.62;6.37;5.77;;;24.30;37.80;;;;;;2259673;61;20361;-61
2022/07/01 10:00:55;0.00;0.00;0.62;0.00;0.00;0.62;6.13;5.50;;;24.30;37.80;;;;;;2260247;61;20385;-60
2022/07/01 10:03:41;0.00;0.00;0.62;0.00;0.00;0.62;5.87;5.17;;;24.30;37.80;;;;;;2259877;61;20388;-61
2022/07/01 10:06:59;0.00;0.00;0.62;0.00;0.00;0.62;7.30;5.23;;;24.30;37.80;;;;;;2259159;61;20388;-63
2022/07/01 10:10:03;0.00;0.00;0.62;0.00;0.00;0.62;6.27;5.77;;;24.20;37.80;;;;;;2259604;61;20849;-59
2022/07/01 10:12:51;0.00;0.00;0.62;0.00;0.00;0.62;7.20;6.60;;;24.20;37.90;;;;;;2259567;61;20365;-61
2022/07/01 10:15:39;0.00;0.00;0.62;0.00;0.00;0.62;6.73;5.77;;;24.20;37.90;;;;;;2259944;61;20400;-62
2022/07/01 10:18:26;0.00;0.00;0.62;0.00;0.00;0.62;6.30;5.57;;;24.20;37.90;;;;;;2259613;61;20365;-64
2022/07/01 10:21:27;0.00;0.00;0.62;0.00;0.00;0.62;6.03;5.53;;;24.20;37.90;;;;;;2259051;61;20424;-64
2022/07/01 10:24:13;0.00;0.00;0.62;0.00;0.00;0.62;6.60;6.00;;;24.30;37.90;;;;;;2259122;61;21198;-62
2022/07/01 10:27:00;0.00;0.00;0.62;0.00;0.00;0.62;5.83;5.27;;;24.20;37.80;;;;;;2259333;61;20449;-63
2022/07/01 10:29:45;0.00;0.00;0.62;0.00;0.00;0.62;7.80;7.07;;;24.20;37.80;;;;;;2259332;61;20439;-63
2022/07/01 10:32:31;0.00;0.00;0.62;0.00;0.00;0.62;7.23;6.53;;;24.20;37.80;;;;;;2259989;61;20361;-62
2022/07/01 10:35:16;0.00;0.00;0.62;0.00;0.00;0.62;7.77;6.20;;;24.20;37.80;;;;;;2258970;61;20369;-63
2022/07/01 10:38:02;0.00;0.00;0.62;0.00;0.00;0.62;7.90;6.70;;;24.20;37.70;;;;;;2259897;61;20397;-57
2022/07/01 10:40:50;0.00;0.00;0.62;0.00;0.00;0.62;11.23;8.07;;;24.20;37.80;;;;;;2259445;61;20712;-59
2022/07/01 10:43:37;0.00;0.00;0.62;0.00;0.00;0.62;8.03;6.37;;;24.20;37.90;;;;;;2258913;61;20914;-57
2022/07/01 10:46:41;0.00;0.00;0.62;0.00;0.00;0.62;7.73;6.97;;;24.20;37.90;;;;;;2259774;61;20925;-60
2022/07/01 10:49:59;0.00;0.00;0.62;0.00;0.00;0.62;8.17;7.00;;;24.20;37.80;;;;;;2259313;61;20434;-59
2022/07/01 10:53:01;0.00;0.00;0.62;0.00;0.00;0.62;7.90;7.10;;;24.30;37.90;;;;;;2259292;61;20424;-60
2022/07/01 10:55:51;0.00;0.00;0.62;0.00;0.00;0.62;7.70;6.90;;;24.30;37.80;;;;;;2259346;61;20364;-60
2022/07/01 10:58:37;0.00;0.00;0.62;0.00;0.00;0.62;7.33;6.30;;;24.30;37.80;;;;;;2259144;61;20381;-62
2022/07/01 11:01:23;0.00;0.00;0.62;0.00;0.00;0.62;8.67;6.90;;;24.30;37.80;;;;;;2259938;61;20396;-64
2022/07/01 11:04:08;0.00;0.00;0.62;0.00;0.00;0.62;8.43;7.67;;;24.30;37.80;;;;;;2258966;61;20365;-64